Time;durP1;ratioP1;P1;durP2;ratioP2;P2;SDS_P1;SDS_P2;PMS_P1;PMS_P2;Temp;Humidity;BMP_temperature;BMP_pressure;BME280_temperature;BME280_humidity;BME280_pressure;Samples;Min_cycle;Max_cycle;Signal;HPM_P1;HPM_P2
2023/12/21 00:01:03;;;;;;;0.10;0.10;;;;;;;;;;5027009;28;20025;-66
2023/12/21 00:03:28;;;;;;;0.17;0.17;;;;;;;;;;5024424;28;20029;-64
2023/12/21 00:05:53;;;;;;;0.10;0.10;;;;;;;;;;5023122;28;20025;-65
2023/12/21 00:08:19;;;;;;;0.40;0.40;;;;;;;;;;5019067;28;20385;-65
2023/12/21 00:10:44;;;;;;;0.10;0.10;;;;;;;;;;5026671;28;20033;-65
2023/12/21 00:13:09;;;;;;;0.20;0.20;;;;;;;;;;5022255;28;20021;-65
2023/12/21 00:15:35;;;;;;;0.60;0.60;;;;;;;;;;5021329;28;20061;-75
2023/12/21 00:18:00;;;;;;;0.10;0.10;;;;;;;;;;5021964;28;20021;-75
2023/12/21 00:20:25;;;;;;;0.20;0.20;;;;;;;;;;5018245;28;20037;-72
2023/12/21 00:22:50;;;;;;;0.10;0.10;;;;;;;;;;5020660;28;20033;-71
2023/12/21 00:25:16;;;;;;;0.20;0.20;;;;;;;;;;5018922;28;20527;-73
2023/12/21 00:27:41;;;;;;;0.10;0.10;;;;;;;;;;5022975;28;20041;-70
2023/12/21 00:30:07;;;;;;;0.10;0.10;;;;;;;;;;5018409;28;20033;-75
2023/12/21 00:32:32;;;;;;;0.10;0.10;;;;;;;;;;5018004;28;20409;-70
2023/12/21 00:34:57;;;;;;;0.10;0.10;;;;;;;;;;5018179;28;20025;-72
2023/12/21 00:37:23;;;;;;;0.10;0.10;;;;;;;;;;5023414;28;20213;-72
2023/12/21 00:39:48;;;;;;;0.10;0.10;;;;;;;;;;5021261;28;20171;-72
2023/12/21 00:42:13;;;;;;;0.20;0.20;;;;;;;;;;5009538;28;20064;-75
2023/12/21 00:44:39;;;;;;;0.30;0.30;;;;;;;;;;5020950;28;20029;-74
2023/12/21 00:47:04;;;;;;;0.30;0.30;;;;;;;;;;5021847;28;20032;-72
2023/12/21 00:49:29;;;;;;;6.17;0.50;;;;;;;;;;5025393;28;20425;-77
2023/12/21 00:51:54;;;;;;;0.13;0.13;;;;;;;;;;5016193;28;20533;-74
2023/12/21 00:54:20;;;;;;;0.10;0.10;;;;;;;;;;5021580;28;20029;-74
2023/12/21 00:56:45;;;;;;;0.10;0.10;;;;;;;;;;5028409;28;20025;-73
2023/12/21 00:59:10;;;;;;;0.10;0.10;;;;;;;;;;5020758;28;20478;-73
2023/12/21 01:01:36;;;;;;;4.33;0.43;;;;;;;;;;5022521;28;20416;-73
2023/12/21 01:04:01;;;;;;;0.10;0.10;;;;;;;;;;5019021;28;20069;-71
2023/12/21 01:06:26;;;;;;;0.40;0.40;;;;;;;;;;5024501;28;20034;-76
2023/12/21 01:08:51;;;;;;;0.37;0.37;;;;;;;;;;5021798;28;20028;-72
2023/12/21 01:11:16;;;;;;;0.10;0.10;;;;;;;;;;5021696;28;20132;-72
2023/12/21 01:13:42;;;;;;;0.63;0.30;;;;;;;;;;5019225;28;20037;-71
2023/12/21 01:16:07;;;;;;;0.20;0.20;;;;;;;;;;5022022;28;20032;-69
2023/12/21 01:18:33;;;;;;;0.23;0.23;;;;;;;;;;5021838;28;20030;-70
2023/12/21 01:20:58;;;;;;;0.23;0.23;;;;;;;;;;5021575;28;20025;-72
2023/12/21 01:23:24;;;;;;;0.10;0.10;;;;;;;;;;5018285;28;20816;-74
2023/12/21 01:25:49;;;;;;;0.40;0.40;;;;;;;;;;5022536;28;20053;-65
2023/12/21 01:28:14;;;;;;;0.20;0.20;;;;;;;;;;5020664;28;20026;-65
2023/12/21 01:30:40;;;;;;;0.40;0.40;;;;;;;;;;5022187;28;20036;-64
2023/12/21 01:33:05;;;;;;;0.10;0.10;;;;;;;;;;5027340;28;20132;-65
2023/12/21 01:35:30;;;;;;;0.73;0.37;;;;;;;;;;5024516;28;20335;-64
2023/12/21 01:37:55;;;;;;;0.27;0.23;;;;;;;;;;5027555;28;20029;-64
2023/12/21 01:40:22;;;;;;;0.47;0.40;;;;;;;;;;5031830;28;20029;-64
2023/12/21 01:42:48;;;;;;;0.20;0.20;;;;;;;;;;5024022;28;20393;-64
2023/12/21 01:45:13;;;;;;;0.20;0.20;;;;;;;;;;5024510;28;20033;-64
2023/12/21 01:47:38;;;;;;;1.60;0.60;;;;;;;;;;5020946;28;20375;-64
2023/12/21 01:50:04;;;;;;;0.40;0.40;;;;;;;;;;5020391;28;20391;-65
2023/12/21 01:52:29;;;;;;;0.10;0.10;;;;;;;;;;5028278;28;20116;-64
2023/12/21 01:54:55;;;;;;;0.20;0.20;;;;;;;;;;5026857;28;20038;-64
2023/12/21 01:57:20;;;;;;;0.40;0.30;;;;;;;;;;5026766;28;20025;-64
2023/12/21 01:59:46;;;;;;;0.47;0.20;;;;;;;;;;5024525;28;20030;-64
2023/12/21 02:02:11;;;;;;;0.10;0.10;;;;;;;;;;5018936;28;20025;-64
2023/12/21 02:04:36;;;;;;;0.10;0.10;;;;;;;;;;5030230;28;20217;-64
2023/12/21 02:07:02;;;;;;;0.20;0.20;;;;;;;;;;5021804;28;20026;-64
2023/12/21 02:09:27;;;;;;;1.17;1.07;;;;;;;;;;5027133;28;20474;-64
2023/12/21 02:11:52;;;;;;;0.77;0.33;;;;;;;;;;5023811;28;20068;-64
2023/12/21 02:14:17;;;;;;;1.07;0.20;;;;;;;;;;5025076;28;20108;-64
2023/12/21 02:16:46;;;;;;;0.30;0.30;;;;;;;;;;5024655;28;20087;-63
2023/12/21 02:19:13;;;;;;;0.30;0.30;;;;;;;;;;5026887;28;20527;-64
2023/12/21 02:21:39;;;;;;;0.40;0.37;;;;;;;;;;5025466;28;20036;-64
2023/12/21 02:24:11;;;;;;;0.93;0.50;;;;;;;;;;5022406;28;20048;-63
2023/12/21 02:26:36;;;;;;;0.10;0.10;;;;;;;;;;5023499;28;20144;-64
2023/12/21 02:29:03;;;;;;;0.37;0.30;;;;;;;;;;5022405;28;20104;-64
2023/12/21 02:31:28;;;;;;;0.83;0.27;;;;;;;;;;5023133;28;20410;-64
2023/12/21 02:33:53;;;;;;;0.10;0.10;;;;;;;;;;5022677;28;20032;-70
2023/12/21 02:36:19;;;;;;;1.80;0.63;;;;;;;;;;5020984;28;20029;-70
2023/12/21 02:38:44;;;;;;;0.23;0.23;;;;;;;;;;5020822;28;20025;-69
2023/12/21 02:41:09;;;;;;;0.37;0.37;;;;;;;;;;5023754;28;20026;-73
2023/12/21 02:43:34;;;;;;;0.13;0.13;;;;;;;;;;5019502;28;20030;-69
2023/12/21 02:46:00;;;;;;;0.43;0.33;;;;;;;;;;5022643;28;20034;-69
2023/12/21 02:48:25;;;;;;;1.03;0.67;;;;;;;;;;5019530;28;20040;-71
2023/12/21 02:50:50;;;;;;;0.10;0.10;;;;;;;;;;5024023;28;20624;-69
2023/12/21 02:53:16;;;;;;;0.20;0.20;;;;;;;;;;5023270;28;20394;-69
2023/12/21 02:55:41;;;;;;;0.90;0.47;;;;;;;;;;5023994;28;20355;-69
2023/12/21 02:58:06;;;;;;;0.23;0.23;;;;;;;;;;5019078;28;20021;-69
2023/12/21 03:00:31;;;;;;;0.83;0.83;;;;;;;;;;5020954;28;20028;-68
2023/12/21 03:02:57;;;;;;;0.30;0.30;;;;;;;;;;5029025;28;20122;-69
2023/12/21 03:05:22;;;;;;;0.20;0.20;;;;;;;;;;5021263;28;20034;-70
2023/12/21 03:07:47;;;;;;;0.80;0.70;;;;;;;;;;5026899;28;20104;-70
2023/12/21 03:10:13;;;;;;;0.40;0.40;;;;;;;;;;5022512;28;20033;-69
2023/12/21 03:12:38;;;;;;;0.10;0.10;;;;;;;;;;5023367;28;20554;-70
2023/12/21 03:15:03;;;;;;;0.30;0.30;;;;;;;;;;5022917;28;20067;-70
2023/12/21 03:17:29;;;;;;;0.40;0.37;;;;;;;;;;5025735;28;20021;-72
2023/12/21 03:19:54;;;;;;;0.93;0.53;;;;;;;;;;5022511;28;20084;-70
2023/12/21 03:22:19;;;;;;;0.20;0.20;;;;;;;;;;5023337;28;20468;-69
2023/12/21 03:24:46;;;;;;;0.77;0.73;;;;;;;;;;5026348;28;20576;-68
2023/12/21 03:27:13;;;;;;;1.40;0.93;;;;;;;;;;5020574;28;20028;-69
2023/12/21 03:29:38;;;;;;;2.90;1.23;;;;;;;;;;5027336;28;20587;-69
2023/12/21 03:32:04;;;;;;;0.30;0.30;;;;;;;;;;5024971;28;20109;-74
2023/12/21 03:34:29;;;;;;;5.23;0.93;;;;;;;;;;5020673;28;20076;-70
2023/12/21 03:36:54;;;;;;;0.93;0.40;;;;;;;;;;5021111;28;20064;-70
2023/12/21 03:39:20;;;;;;;0.93;0.77;;;;;;;;;;5022446;28;20064;-70
2023/12/21 03:41:45;;;;;;;0.43;0.43;;;;;;;;;;5022757;28;20546;-71
2023/12/21 03:44:10;;;;;;;1.03;1.00;;;;;;;;;;5023442;28;20021;-64
2023/12/21 03:46:35;;;;;;;0.33;0.33;;;;;;;;;;5018595;28;20030;-64
2023/12/21 03:49:00;;;;;;;2.20;1.03;;;;;;;;;;5024013;28;20025;-66
2023/12/21 03:51:26;;;;;;;1.20;0.60;;;;;;;;;;5031669;28;20113;-64
2023/12/21 03:53:51;;;;;;;0.20;0.20;;;;;;;;;;5020325;28;20075;-64
2023/12/21 03:56:16;;;;;;;0.20;0.20;;;;;;;;;;5020079;28;20502;-64
2023/12/21 03:58:42;;;;;;;0.30;0.30;;;;;;;;;;5024328;28;20382;-64
2023/12/21 04:01:07;;;;;;;0.60;0.40;;;;;;;;;;5021275;28;20013;-64
2023/12/21 04:03:32;;;;;;;0.97;0.80;;;;;;;;;;5003748;28;20034;-64
2023/12/21 04:05:58;;;;;;;0.10;0.10;;;;;;;;;;5020515;28;20393;-64
2023/12/21 04:08:23;;;;;;;0.60;0.60;;;;;;;;;;5021027;28;20049;-64
2023/12/21 04:10:48;;;;;;;0.43;0.33;;;;;;;;;;5024010;28;20025;-64
2023/12/21 04:13:14;;;;;;;0.83;0.60;;;;;;;;;;5026009;28;20079;-64
2023/12/21 04:15:39;;;;;;;0.40;0.40;;;;;;;;;;5023690;28;20025;-64
2023/12/21 04:18:05;;;;;;;0.67;0.30;;;;;;;;;;5024192;28;20429;-65
2023/12/21 04:20:30;;;;;;;0.20;0.20;;;;;;;;;;5017313;28;20104;-66
2023/12/21 04:22:56;;;;;;;0.20;0.20;;;;;;;;;;5024971;28;20033;-65
2023/12/21 04:25:22;;;;;;;0.30;0.30;;;;;;;;;;5021625;28;20048;-65
2023/12/21 04:27:47;;;;;;;0.40;0.40;;;;;;;;;;5020697;28;20076;-64
2023/12/21 04:30:12;;;;;;;0.30;0.30;;;;;;;;;;5020142;28;20450;-65
2023/12/21 04:32:38;;;;;;;0.13;0.13;;;;;;;;;;5022664;28;20018;-64
2023/12/21 04:35:03;;;;;;;0.50;0.50;;;;;;;;;;5003513;28;20061;-65
2023/12/21 04:37:29;;;;;;;0.10;0.10;;;;;;;;;;5025567;28;20509;-65
2023/12/21 04:39:54;;;;;;;0.67;0.67;;;;;;;;;;5022809;28;20057;-65
2023/12/21 04:42:19;;;;;;;0.20;0.20;;;;;;;;;;5018608;28;20466;-65
2023/12/21 04:44:44;;;;;;;0.10;0.10;;;;;;;;;;5023800;28;20109;-65
2023/12/21 04:47:10;;;;;;;0.10;0.10;;;;;;;;;;5019818;28;20024;-65
2023/12/21 04:49:36;;;;;;;0.17;0.17;;;;;;;;;;5020163;28;20065;-65
2023/12/21 04:52:02;;;;;;;3.83;1.40;;;;;;;;;;5019729;28;20025;-65
2023/12/21 04:54:27;;;;;;;0.10;0.10;;;;;;;;;;5019910;28;20501;-65
2023/12/21 04:56:52;;;;;;;0.17;0.17;;;;;;;;;;5022591;28;20038;-65
2023/12/21 04:59:18;;;;;;;0.20;0.20;;;;;;;;;;5024274;28;20033;-65
2023/12/21 05:01:47;;;;;;;0.60;0.53;;;;;;;;;;5024363;28;20029;-65
2023/12/21 05:04:12;;;;;;;0.50;0.23;;;;;;;;;;5020067;28;20384;-64
2023/12/21 05:06:38;;;;;;;0.20;0.20;;;;;;;;;;5020308;28;20138;-64
2023/12/21 05:09:03;;;;;;;0.17;0.17;;;;;;;;;;5025130;28;20021;-66
2023/12/21 05:11:28;;;;;;;0.10;0.10;;;;;;;;;;5023723;28;20453;-65
2023/12/21 05:13:53;;;;;;;0.30;0.30;;;;;;;;;;5023738;28;20065;-66
2023/12/21 05:16:19;;;;;;;0.10;0.10;;;;;;;;;;5021593;28;20103;-65
2023/12/21 05:18:44;;;;;;;0.10;0.10;;;;;;;;;;5025843;28;20135;-66
2023/12/21 05:21:09;;;;;;;0.20;0.20;;;;;;;;;;5024107;28;20048;-65
2023/12/21 05:23:35;;;;;;;0.10;0.10;;;;;;;;;;5020038;28;20446;-66
2023/12/21 05:26:00;;;;;;;0.10;0.10;;;;;;;;;;5021378;28;20076;-65
2023/12/21 05:28:26;;;;;;;0.10;0.10;;;;;;;;;;5019655;28;20480;-65
2023/12/21 05:30:51;;;;;;;0.77;0.50;;;;;;;;;;5024503;28;21637;-65
2023/12/21 05:33:17;;;;;;;0.17;0.17;;;;;;;;;;5015517;28;20029;-65
2023/12/21 05:35:42;;;;;;;0.10;0.10;;;;;;;;;;5021731;28;20029;-65
2023/12/21 05:38:08;;;;;;;0.27;0.27;;;;;;;;;;5021190;28;20030;-65
2023/12/21 05:40:33;;;;;;;0.10;0.10;;;;;;;;;;5018714;28;20467;-65
2023/12/21 05:42:58;;;;;;;0.10;0.10;;;;;;;;;;5020562;28;20389;-65
2023/12/21 05:45:23;;;;;;;0.20;0.20;;;;;;;;;;5016624;28;20068;-67
2023/12/21 05:47:49;;;;;;;0.10;0.10;;;;;;;;;;5020854;28;20478;-65
2023/12/21 05:50:14;;;;;;;0.20;0.20;;;;;;;;;;5031156;28;20161;-65
2023/12/21 05:52:39;;;;;;;0.10;0.10;;;;;;;;;;5014810;28;20033;-65
2023/12/21 05:55:05;;;;;;;0.10;0.10;;;;;;;;;;5021165;28;20464;-65
2023/12/21 05:57:30;;;;;;;0.40;0.40;;;;;;;;;;5021322;28;20061;-65
2023/12/21 05:59:55;;;;;;;0.10;0.10;;;;;;;;;;5009183;28;20055;-65
2023/12/21 06:02:21;;;;;;;0.10;0.10;;;;;;;;;;5021270;28;20477;-65
2023/12/21 06:04:46;;;;;;;0.17;0.17;;;;;;;;;;5021481;28;20065;-71
2023/12/21 06:07:11;;;;;;;0.10;0.10;;;;;;;;;;5024891;28;20030;-75
2023/12/21 06:09:36;;;;;;;0.10;0.10;;;;;;;;;;5023221;28;20057;-75
2023/12/21 06:12:03;;;;;;;0.83;0.50;;;;;;;;;;5018960;28;20018;-71
2023/12/21 06:14:28;;;;;;;0.10;0.10;;;;;;;;;;5019205;28;20022;-71
2023/12/21 06:16:54;;;;;;;1.60;0.30;;;;;;;;;;5024977;28;20104;-70
2023/12/21 06:19:19;;;;;;;0.37;0.30;;;;;;;;;;5024551;28;20032;-70
2023/12/21 06:21:44;;;;;;;0.97;0.43;;;;;;;;;;5026275;28;20036;-73
2023/12/21 06:24:09;;;;;;;0.30;0.30;;;;;;;;;;5021082;28;20058;-71
2023/12/21 06:26:41;;;;;;;0.10;0.10;;;;;;;;;;5022918;28;20033;-70
2023/12/21 06:29:07;;;;;;;0.20;0.20;;;;;;;;;;5029544;28;20024;-72
2023/12/21 06:31:32;;;;;;;0.10;0.10;;;;;;;;;;5017635;28;20017;-72
2023/12/21 06:33:57;;;;;;;0.33;0.33;;;;;;;;;;5027239;28;20026;-71
2023/12/21 06:36:23;;;;;;;1.30;0.67;;;;;;;;;;5019392;28;20041;-70
2023/12/21 06:38:48;;;;;;;0.23;0.23;;;;;;;;;;5027149;28;20032;-70
2023/12/21 06:41:14;;;;;;;0.10;0.10;;;;;;;;;;5026373;28;20406;-71
2023/12/21 06:43:39;;;;;;;0.10;0.10;;;;;;;;;;5015506;28;20105;-71
2023/12/21 06:46:10;;;;;;;0.10;0.10;;;;;;;;;;5027495;28;20076;-70
2023/12/21 06:48:35;;;;;;;0.10;0.10;;;;;;;;;;5020309;28;20025;-73
2023/12/21 06:51:01;;;;;;;0.10;0.10;;;;;;;;;;5024271;28;20104;-74
2023/12/21 06:53:26;;;;;;;0.20;0.20;;;;;;;;;;5021694;28;20018;-71
2023/12/21 06:55:51;;;;;;;0.10;0.10;;;;;;;;;;5021081;28;20386;-72
2023/12/21 06:58:16;;;;;;;0.10;0.10;;;;;;;;;;5023422;28;20042;-73
2023/12/21 07:00:42;;;;;;;0.10;0.10;;;;;;;;;;5019486;28;20080;-72
2023/12/21 07:03:07;;;;;;;0.10;0.10;;;;;;;;;;5022999;28;20028;-73
2023/12/21 07:05:33;;;;;;;0.43;0.43;;;;;;;;;;5021665;28;20030;-70
2023/12/21 07:07:59;;;;;;;0.23;0.20;;;;;;;;;;5020919;28;20284;-71
2023/12/21 07:10:24;;;;;;;0.10;0.10;;;;;;;;;;5024579;28;20030;-73
2023/12/21 07:12:49;;;;;;;0.10;0.10;;;;;;;;;;5030088;28;20009;-70
2023/12/21 07:15:16;;;;;;;0.10;0.10;;;;;;;;;;5023234;28;20033;-72
2023/12/21 07:17:41;;;;;;;0.63;0.23;;;;;;;;;;5026166;28;20067;-71
2023/12/21 07:20:07;;;;;;;0.47;0.30;;;;;;;;;;5020707;28;20021;-71
2023/12/21 07:22:32;;;;;;;0.10;0.10;;;;;;;;;;5023937;28;20052;-71
2023/12/21 07:24:58;;;;;;;0.10;0.10;;;;;;;;;;5024379;28;20131;-69
2023/12/21 07:27:24;;;;;;;0.20;0.20;;;;;;;;;;5024752;28;20360;-70
2023/12/21 07:29:49;;;;;;;0.10;0.10;;;;;;;;;;5025244;28;20021;-72
2023/12/21 07:32:15;;;;;;;0.30;0.30;;;;;;;;;;5024989;28;20751;-72
2023/12/21 07:34:40;;;;;;;0.50;0.30;;;;;;;;;;5020784;28;20025;-72
2023/12/21 07:37:07;;;;;;;0.10;0.10;;;;;;;;;;5021669;28;20052;-71
2023/12/21 07:39:32;;;;;;;0.20;0.20;;;;;;;;;;5020715;28;20030;-69
2023/12/21 07:41:57;;;;;;;0.13;0.13;;;;;;;;;;5021735;28;20026;-72
2023/12/21 07:44:23;;;;;;;0.10;0.10;;;;;;;;;;5024417;28;20043;-71
2023/12/21 07:46:48;;;;;;;0.10;0.10;;;;;;;;;;5022499;28;20018;-72
2023/12/21 07:49:14;;;;;;;0.00;0.00;;;;;;;;;;5027793;28;20021;-69
2023/12/21 07:51:39;;;;;;;0.10;0.10;;;;;;;;;;5020057;28;20101;-71
2023/12/21 07:54:04;;;;;;;0.10;0.10;;;;;;;;;;5019200;28;20021;-72
2023/12/21 07:56:30;;;;;;;0.20;0.20;;;;;;;;;;5022742;28;20030;-71
2023/12/21 07:58:55;;;;;;;0.10;0.10;;;;;;;;;;5020945;28;20030;-71
2023/12/21 08:01:20;;;;;;;0.10;0.10;;;;;;;;;;5025048;28;20543;-74
2023/12/21 08:03:45;;;;;;;0.10;0.10;;;;;;;;;;5019258;28;20030;-74
2023/12/21 08:06:21;;;;;;;0.63;0.50;;;;;;;;;;5017831;28;20022;-70
2023/12/21 08:08:46;;;;;;;0.30;0.23;;;;;;;;;;5022095;28;20097;-71
2023/12/21 08:11:11;;;;;;;0.20;0.20;;;;;;;;;;5020357;28;20130;-73
2023/12/21 08:13:37;;;;;;;0.30;0.20;;;;;;;;;;5021926;28;20371;-71
2023/12/21 08:16:03;;;;;;;0.10;0.10;;;;;;;;;;5023442;28;20469;-71
2023/12/21 08:18:28;;;;;;;0.10;0.10;;;;;;;;;;5020333;28;20021;-73
2023/12/21 08:20:53;;;;;;;0.40;0.37;;;;;;;;;;5025855;28;20390;-71
2023/12/21 08:23:19;;;;;;;0.07;0.07;;;;;;;;;;5023582;28;20014;-74
2023/12/21 08:25:44;;;;;;;0.10;0.10;;;;;;;;;;5020626;28;20054;-66
2023/12/21 08:28:09;;;;;;;0.10;0.10;;;;;;;;;;5025375;28;20033;-66
2023/12/21 08:30:34;;;;;;;1.60;0.87;;;;;;;;;;5020844;28;20025;-65
2023/12/21 08:33:00;;;;;;;0.37;0.37;;;;;;;;;;5024603;28;20016;-66
2023/12/21 08:35:26;;;;;;;0.10;0.10;;;;;;;;;;5022841;28;20505;-67
2023/12/21 08:37:51;;;;;;;0.20;0.20;;;;;;;;;;5023473;28;20044;-67
2023/12/21 08:40:16;;;;;;;0.10;0.10;;;;;;;;;;5023255;28;20454;-67
2023/12/21 08:42:42;;;;;;;0.10;0.10;;;;;;;;;;5019023;28;20022;-67
2023/12/21 08:45:08;;;;;;;0.10;0.10;;;;;;;;;;5021533;28;20025;-67
2023/12/21 08:47:40;;;;;;;0.20;0.20;;;;;;;;;;5020815;28;20475;-67
2023/12/21 08:50:06;;;;;;;0.10;0.10;;;;;;;;;;5017761;28;20047;-68
2023/12/21 08:52:32;;;;;;;1.57;0.60;;;;;;;;;;5024645;28;20108;-69
2023/12/21 08:54:57;;;;;;;0.20;0.20;;;;;;;;;;5015832;28;20028;-67
2023/12/21 08:57:22;;;;;;;0.10;0.10;;;;;;;;;;5022398;28;20034;-68
2023/12/21 08:59:48;;;;;;;0.10;0.10;;;;;;;;;;5013578;28;20025;-67
2023/12/21 09:02:14;;;;;;;0.40;0.40;;;;;;;;;;5015279;28;20443;-67
2023/12/21 09:04:39;;;;;;;0.10;0.10;;;;;;;;;;5019164;28;20565;-67
2023/12/21 09:07:04;;;;;;;0.30;0.30;;;;;;;;;;5016504;28;20053;-67
2023/12/21 09:09:31;;;;;;;0.10;0.10;;;;;;;;;;5022939;28;20083;-66
2023/12/21 09:11:56;;;;;;;0.83;0.30;;;;;;;;;;5015322;28;20114;-67
2023/12/21 09:14:22;;;;;;;0.10;0.10;;;;;;;;;;5017435;28;20108;-66
2023/12/21 09:16:48;;;;;;;0.53;0.37;;;;;;;;;;5024991;28;20436;-67
2023/12/21 09:19:13;;;;;;;0.10;0.10;;;;;;;;;;5020132;28;20030;-67
2023/12/21 09:21:40;;;;;;;0.10;0.10;;;;;;;;;;5021960;28;20528;-68
2023/12/21 09:24:06;;;;;;;0.20;0.20;;;;;;;;;;5021181;28;20589;-67
2023/12/21 09:26:32;;;;;;;0.10;0.10;;;;;;;;;;5008022;28;20034;-67
2023/12/21 09:28:57;;;;;;;0.10;0.10;;;;;;;;;;5023329;28;20470;-66
2023/12/21 09:31:22;;;;;;;0.10;0.10;;;;;;;;;;5023254;28;20054;-67
2023/12/21 09:33:48;;;;;;;0.10;0.10;;;;;;;;;;5023037;28;20033;-67
2023/12/21 09:36:14;;;;;;;0.10;0.10;;;;;;;;;;5019794;28;20518;-66
2023/12/21 09:38:40;;;;;;;0.10;0.10;;;;;;;;;;5015901;28;20021;-67
2023/12/21 09:41:07;;;;;;;0.10;0.10;;;;;;;;;;5023504;28;20033;-66
2023/12/21 09:43:33;;;;;;;0.10;0.10;;;;;;;;;;5018750;28;20032;-65
2023/12/21 09:45:59;;;;;;;0.10;0.10;;;;;;;;;;5022201;28;20108;-67
2023/12/21 09:48:25;;;;;;;0.27;0.27;;;;;;;;;;5018185;28;20426;-67
2023/12/21 09:50:51;;;;;;;0.10;0.10;;;;;;;;;;5019325;28;20466;-67
2023/12/21 09:53:16;;;;;;;0.10;0.10;;;;;;;;;;5024029;28;20140;-67
2023/12/21 09:55:46;;;;;;;0.10;0.10;;;;;;;;;;5029725;28;20017;-67
2023/12/21 09:58:12;;;;;;;0.50;0.43;;;;;;;;;;5018194;28;20068;-67
2023/12/21 10:00:37;;;;;;;0.10;0.10;;;;;;;;;;5022675;28;20539;-67
2023/12/21 10:03:04;;;;;;;0.10;0.10;;;;;;;;;;5022352;28;20502;-67
2023/12/21 10:05:29;;;;;;;0.10;0.10;;;;;;;;;;5024498;28;20026;-66
2023/12/21 10:07:54;;;;;;;0.40;0.40;;;;;;;;;;5027043;28;20431;-65
2023/12/21 10:10:20;;;;;;;0.40;0.40;;;;;;;;;;5016788;28;20104;-67
2023/12/21 10:12:45;;;;;;;0.10;0.10;;;;;;;;;;5016766;28;20022;-67
2023/12/21 10:15:11;;;;;;;0.30;0.30;;;;;;;;;;5023911;28;20030;-66
2023/12/21 10:17:36;;;;;;;0.10;0.10;;;;;;;;;;5024194;28;20026;-65
2023/12/21 10:20:03;;;;;;;0.10;0.10;;;;;;;;;;5025229;28;20382;-66
2023/12/21 10:22:29;;;;;;;0.10;0.10;;;;;;;;;;5019576;28;20048;-67
2023/12/21 10:24:54;;;;;;;0.00;0.00;;;;;;;;;;5025277;28;20467;-67
2023/12/21 10:27:21;;;;;;;0.10;0.10;;;;;;;;;;5027493;28;20139;-66
2023/12/21 10:29:53;;;;;;;0.10;0.10;;;;;;;;;;5024890;28;20344;-65
2023/12/21 10:32:19;;;;;;;0.00;0.00;;;;;;;;;;5021597;28;20049;-66
2023/12/21 10:34:44;;;;;;;0.83;0.70;;;;;;;;;;5025024;28;20053;-67
2023/12/21 10:37:09;;;;;;;0.10;0.10;;;;;;;;;;5024892;28;20045;-65
2023/12/21 10:39:35;;;;;;;0.10;0.10;;;;;;;;;;5025816;28;20025;-66
2023/12/21 10:42:00;;;;;;;0.10;0.10;;;;;;;;;;5024239;28;20032;-66
2023/12/21 10:44:26;;;;;;;0.10;0.10;;;;;;;;;;5024733;28;20036;-66
2023/12/21 10:46:51;;;;;;;0.10;0.10;;;;;;;;;;5022207;28;20022;-70
2023/12/21 10:49:17;;;;;;;0.10;0.10;;;;;;;;;;5023578;28;20021;-72
2023/12/21 10:51:43;;;;;;;0.10;0.10;;;;;;;;;;5020181;28;20029;-70
2023/12/21 10:54:09;;;;;;;0.00;0.00;;;;;;;;;;5021167;28;20030;-71
2023/12/21 10:56:39;;;;;;;0.10;0.10;;;;;;;;;;5021946;28;20117;-70
2023/12/21 10:59:05;;;;;;;0.10;0.10;;;;;;;;;;5020256;28;20032;-71
2023/12/21 11:01:32;;;;;;;0.10;0.10;;;;;;;;;;5016997;28;20106;-70
2023/12/21 11:04:00;;;;;;;0.20;0.20;;;;;;;;;;5021188;28;20080;-68
2023/12/21 11:06:30;;;;;;;0.10;0.10;;;;;;;;;;5021474;28;20427;-68
2023/12/21 11:08:56;;;;;;;0.00;0.00;;;;;;;;;;5018780;28;20033;-71
2023/12/21 11:11:23;;;;;;;0.10;0.10;;;;;;;;;;5018619;28;20097;-71
2023/12/21 11:13:54;;;;;;;0.10;0.10;;;;;;;;;;5019174;28;20025;-70
2023/12/21 11:16:22;;;;;;;0.10;0.10;;;;;;;;;;5026913;28;20052;-70
2023/12/21 11:18:48;;;;;;;0.10;0.10;;;;;;;;;;5015142;28;20378;-72
2023/12/21 11:21:13;;;;;;;0.00;0.00;;;;;;;;;;5016577;28;20010;-71
2023/12/21 11:23:42;;;;;;;0.10;0.10;;;;;;;;;;5027541;28;20017;-69
2023/12/21 11:26:08;;;;;;;0.00;0.00;;;;;;;;;;5026373;28;20053;-68
2023/12/21 11:28:34;;;;;;;0.20;0.20;;;;;;;;;;5022799;28;20386;-66
2023/12/21 11:31:11;;;;;;;0.10;0.10;;;;;;;;;;5017166;28;20025;-70
2023/12/21 11:33:36;;;;;;;0.10;0.10;;;;;;;;;;5027857;28;20022;-70
2023/12/21 11:36:02;;;;;;;0.10;0.10;;;;;;;;;;5025053;28;20019;-68
2023/12/21 11:38:39;;;;;;;0.10;0.10;;;;;;;;;;5021517;28;20052;-71
2023/12/21 11:41:05;;;;;;;0.77;0.40;;;;;;;;;;5021024;28;20025;-68
2023/12/21 11:43:31;;;;;;;4.33;0.90;;;;;;;;;;5024066;28;20021;-69
2023/12/21 11:45:56;;;;;;;1.90;0.57;;;;;;;;;;5031337;28;20057;-69
2023/12/21 11:48:21;;;;;;;4.80;0.90;;;;;;;;;;5020532;28;20013;-70
2023/12/21 11:50:46;;;;;;;1.97;0.50;;;;;;;;;;5023001;28;20515;-70
2023/12/21 11:53:12;;;;;;;2.10;0.60;;;;;;;;;;5019210;28;20014;-68
2023/12/21 11:55:39;;;;;;;2.03;0.90;;;;;;;;;;5021042;28;20474;-67
2023/12/21 11:58:07;;;;;;;0.13;0.13;;;;;;;;;;5025131;28;20084;-65
2023/12/21 12:00:33;;;;;;;0.10;0.10;;;;;;;;;;5017586;28;20028;-64
2023/12/21 12:02:59;;;;;;;0.10;0.10;;;;;;;;;;5021592;28;20021;-64
2023/12/21 12:05:24;;;;;;;6.93;1.27;;;;;;;;;;5019388;28;20026;-64
2023/12/21 12:07:49;;;;;;;4.07;0.80;;;;;;;;;;5017587;28;20109;-64
2023/12/21 12:10:17;;;;;;;3.83;0.93;;;;;;;;;;5019821;28;20034;-65
2023/12/21 12:12:43;;;;;;;7.67;0.90;;;;;;;;;;5018034;28;20020;-64
2023/12/21 12:15:08;;;;;;;5.80;1.10;;;;;;;;;;5009340;28;20025;-64
2023/12/21 12:17:39;;;;;;;2.30;0.60;;;;;;;;;;5017352;28;20033;-65
2023/12/21 12:20:05;;;;;;;3.15;0.90;;;;;;;;;;5021352;28;20037;-65
2023/12/21 12:22:30;;;;;;;3.57;0.87;;;;;;;;;;5021147;28;20084;-65
2023/12/21 12:24:56;;;;;;;3.93;0.77;;;;;;;;;;5022483;28;20061;-65
2023/12/21 12:27:21;;;;;;;2.63;0.77;;;;;;;;;;5019324;28;20018;-65
2023/12/21 12:29:46;;;;;;;2.10;0.50;;;;;;;;;;5017868;28;20140;-65
2023/12/21 12:32:12;;;;;;;6.63;1.00;;;;;;;;;;5023595;28;20019;-64
2023/12/21 12:34:37;;;;;;;10.63;1.27;;;;;;;;;;5019953;28;20025;-66
2023/12/21 12:37:03;;;;;;;3.37;0.60;;;;;;;;;;5023939;28;20075;-65
2023/12/21 12:39:30;;;;;;;0.13;0.13;;;;;;;;;;5018589;28;20494;-64
2023/12/21 12:41:57;;;;;;;0.10;0.10;;;;;;;;;;5024348;28;20029;-64
2023/12/21 12:44:23;;;;;;;0.10;0.10;;;;;;;;;;5020806;28;20052;-64
2023/12/21 12:46:49;;;;;;;0.20;0.20;;;;;;;;;;5021782;28;20544;-64
2023/12/21 12:49:15;;;;;;;0.10;0.10;;;;;;;;;;5021427;28;20021;-65
2023/12/21 12:51:40;;;;;;;0.10;0.10;;;;;;;;;;5020167;28;20108;-64
2023/12/21 12:54:06;;;;;;;0.73;0.50;;;;;;;;;;5022297;28;20123;-64
2023/12/21 12:56:32;;;;;;;0.40;0.40;;;;;;;;;;5022520;28;20021;-65
2023/12/21 12:58:57;;;;;;;0.10;0.10;;;;;;;;;;5018026;28;20017;-67
2023/12/21 13:01:23;;;;;;;1.30;0.80;;;;;;;;;;5018863;28;20390;-68
2023/12/21 13:03:48;;;;;;;0.73;0.40;;;;;;;;;;5017543;28;20052;-68
2023/12/21 13:06:13;;;;;;;0.10;0.10;;;;;;;;;;5019636;28;20029;-67
2023/12/21 13:08:38;;;;;;;4.83;1.10;;;;;;;;;;5015957;28;20018;-68
2023/12/21 13:11:04;;;;;;;7.30;1.10;;;;;;;;;;5019528;28;20024;-67
2023/12/21 13:13:29;;;;;;;11.30;1.27;;;;;;;;;;5018630;28;20360;-66
2023/12/21 13:15:54;;;;;;;4.00;1.23;;;;;;;;;;5015206;28;20431;-68
2023/12/21 13:18:20;;;;;;;4.33;0.80;;;;;;;;;;5021047;28;20414;-68
2023/12/21 13:20:46;;;;;;;5.43;1.00;;;;;;;;;;5020666;28;20092;-69
2023/12/21 13:23:13;;;;;;;8.53;1.27;;;;;;;;;;5019172;28;20025;-65
2023/12/21 13:25:38;;;;;;;4.87;1.00;;;;;;;;;;5014523;28;20077;-66
2023/12/21 13:28:04;;;;;;;6.30;0.97;;;;;;;;;;5017558;28;20013;-65
2023/12/21 13:30:29;;;;;;;0.20;0.20;;;;;;;;;;5021367;28;20393;-66
2023/12/21 13:32:55;;;;;;;0.13;0.13;;;;;;;;;;5018897;28;20429;-66
2023/12/21 13:35:21;;;;;;;0.10;0.10;;;;;;;;;;5017798;28;20018;-68
2023/12/21 13:37:46;;;;;;;0.30;0.30;;;;;;;;;;5015004;28;20032;-67
2023/12/21 13:40:11;;;;;;;0.10;0.10;;;;;;;;;;5023511;28;20517;-70
2023/12/21 13:42:36;;;;;;;0.10;0.10;;;;;;;;;;5024084;28;20103;-69
2023/12/21 13:45:05;;;;;;;2.73;0.67;;;;;;;;;;5023559;28;20025;-70
2023/12/21 13:47:32;;;;;;;0.20;0.20;;;;;;;;;;5022185;28;20382;-70
2023/12/21 13:49:58;;;;;;;0.20;0.20;;;;;;;;;;5021610;28;20013;-71
2023/12/21 13:52:24;;;;;;;0.10;0.10;;;;;;;;;;5024339;28;20050;-70
2023/12/21 13:54:50;;;;;;;9.00;0.90;;;;;;;;;;5018394;28;20029;-65
2023/12/21 13:57:16;;;;;;;3.83;1.07;;;;;;;;;;5019839;28;20022;-71
2023/12/21 13:59:41;;;;;;;0.10;0.10;;;;;;;;;;5019776;28;20397;-68
2023/12/21 14:02:07;;;;;;;1.63;0.97;;;;;;;;;;5019316;28;20030;-68
2023/12/21 14:04:33;;;;;;;0.20;0.20;;;;;;;;;;5019779;28;20049;-66
2023/12/21 14:06:58;;;;;;;0.20;0.20;;;;;;;;;;5018604;28;20041;-67
2023/12/21 14:09:24;;;;;;;0.50;0.50;;;;;;;;;;5019947;28;20049;-68
2023/12/21 14:11:49;;;;;;;0.60;0.40;;;;;;;;;;5017130;28;20020;-67
2023/12/21 14:14:14;;;;;;;0.77;0.63;;;;;;;;;;5017019;28;20021;-67
2023/12/21 14:16:39;;;;;;;0.13;0.13;;;;;;;;;;5020973;28;20386;-68
2023/12/21 14:19:05;;;;;;;0.10;0.10;;;;;;;;;;5014783;28;20080;-69
2023/12/21 14:21:30;;;;;;;0.20;0.20;;;;;;;;;;5019786;28;20535;-66
2023/12/21 14:23:55;;;;;;;0.30;0.30;;;;;;;;;;5018943;28;20157;-68
2023/12/21 14:26:21;;;;;;;0.20;0.20;;;;;;;;;;5016089;28;20021;-68
2023/12/21 14:28:46;;;;;;;0.20;0.20;;;;;;;;;;5022466;28;20025;-68
2023/12/21 14:31:12;;;;;;;0.47;0.47;;;;;;;;;;5017472;28;20029;-69
2023/12/21 14:33:37;;;;;;;15.83;1.70;;;;;;;;;;5019456;28;20017;-68